createdAt,value
2022-10-26T00:01:21.200Z,24.90
2022-10-26T00:03:48.502Z,24.10
2022-10-26T00:06:17.786Z,26.45
2022-10-26T00:08:46.384Z,27.20
2022-10-26T00:11:14.448Z,28.63
2022-10-26T00:13:41.613Z,29.77
2022-10-26T00:16:10.760Z,30.00
2022-10-26T00:18:37.811Z,31.40
2022-10-26T00:21:06.391Z,28.02
2022-10-26T00:23:34.049Z,30.08
2022-10-26T00:26:02.084Z,29.52
2022-10-26T00:28:29.624Z,28.00
2022-10-26T00:31:01.971Z,28.88
2022-10-26T00:33:30.196Z,28.98
2022-10-26T00:35:58.033Z,29.08
2022-10-26T00:38:25.474Z,27.45
2022-10-26T00:40:53.022Z,27.50
2022-10-26T00:43:20.233Z,26.42
2022-10-26T00:45:49.859Z,27.42
2022-10-26T00:48:25.167Z,27.15
2022-10-26T00:50:53.594Z,26.92
2022-10-26T00:53:24.337Z,27.13
2022-10-26T00:55:53.197Z,27.70
2022-10-26T00:58:22.098Z,27.20
2022-10-26T01:00:52.604Z,28.10
2022-10-26T01:03:25.558Z,27.63
2022-10-26T01:05:56.189Z,24.77
2022-10-26T01:08:24.657Z,25.23
2022-10-26T01:10:51.968Z,26.17
2022-10-26T01:13:20.342Z,25.15
2022-10-26T01:16:15.248Z,26.20
2022-10-26T01:18:48.400Z,26.35
2022-10-26T01:22:19.455Z,25.77
2022-10-26T01:25:17.160Z,25.58
2022-10-26T01:27:49.514Z,26.55
2022-10-26T01:30:55.777Z,26.17
2022-10-26T01:33:34.157Z,26.00
2022-10-26T01:36:18.832Z,21.95
2022-10-26T01:38:55.363Z,22.63
2022-10-26T01:41:29.117Z,21.92
2022-10-26T01:43:59.363Z,23.48
2022-10-26T01:46:27.605Z,24.17
2022-10-26T01:48:58.260Z,25.17
2022-10-26T01:51:26.904Z,21.85
2022-10-26T01:53:54.270Z,24.10
2022-10-26T01:56:24.332Z,23.48
2022-10-26T01:59:51.039Z,21.50
2022-10-26T02:02:30.081Z,21.90
2022-10-26T02:05:12.242Z,20.13
2022-10-26T02:07:54.412Z,21.92
2022-10-26T02:10:33.802Z,21.58
2022-10-26T02:13:09.055Z,19.38
2022-10-26T02:15:54.350Z,20.48
2022-10-26T02:18:32.642Z,20.70
2022-10-26T02:21:05.743Z,21.13
2022-10-26T02:23:35.311Z,21.17
2022-10-26T02:26:04.188Z,21.30
2022-10-26T02:28:34.533Z,20.42
2022-10-26T02:31:05.724Z,19.35
2022-10-26T02:33:37.078Z,20.70
2022-10-26T02:36:06.704Z,21.25
2022-10-26T02:38:35.098Z,20.92
2022-10-26T02:41:03.757Z,20.73
2022-10-26T02:43:34.650Z,20.48
2022-10-26T02:46:15.319Z,21.58
2022-10-26T02:48:42.795Z,22.05
2022-10-26T02:51:18.351Z,21.55
2022-10-26T02:55:03.042Z,21.38
2022-10-26T02:57:34.399Z,21.40
2022-10-26T03:00:02.093Z,21.55
2022-10-26T03:02:30.462Z,20.70
2022-10-26T03:04:57.729Z,20.92
2022-10-26T03:07:25.368Z,20.33
2022-10-26T03:09:52.863Z,21.30
2022-10-26T03:12:21.028Z,20.30
2022-10-26T03:14:48.011Z,22.25
2022-10-26T03:17:15.117Z,20.77
2022-10-26T03:19:42.513Z,21.00
2022-10-26T03:22:09.687Z,22.65
2022-10-26T03:24:36.648Z,21.60
2022-10-26T03:27:04.037Z,21.63
2022-10-26T03:29:31.601Z,22.42
2022-10-26T03:31:58.828Z,21.33
2022-10-26T03:34:26.152Z,21.90
2022-10-26T03:36:53.447Z,23.75
2022-10-26T03:39:20.768Z,23.42
2022-10-26T03:41:48.227Z,23.05
2022-10-26T03:44:15.589Z,22.85
2022-10-26T03:46:43.030Z,22.48
2022-10-26T03:49:10.086Z,21.05
2022-10-26T03:51:37.570Z,22.00
2022-10-26T03:54:05.207Z,22.63
2022-10-26T03:56:32.673Z,22.58
2022-10-26T03:59:00.022Z,22.27
2022-10-26T04:01:27.140Z,23.55
2022-10-26T04:03:54.119Z,23.75
2022-10-26T04:06:21.165Z,22.35
2022-10-26T04:08:48.249Z,21.65
2022-10-26T04:11:15.482Z,21.77
2022-10-26T04:13:42.623Z,22.65
2022-10-26T04:16:09.725Z,23.67
2022-10-26T04:18:36.752Z,22.42
2022-10-26T04:21:03.963Z,22.52
2022-10-26T04:23:31.288Z,22.00
2022-10-26T04:25:58.278Z,22.42
2022-10-26T04:28:25.385Z,22.42
2022-10-26T04:30:52.814Z,22.20
2022-10-26T04:33:19.993Z,20.45
2022-10-26T04:35:48.173Z,21.17
2022-10-26T04:38:15.380Z,22.67
2022-10-26T04:40:42.852Z,23.20
2022-10-26T04:43:10.142Z,23.38
2022-10-26T04:45:37.515Z,21.90
2022-10-26T04:48:07.401Z,22.00
2022-10-26T04:50:35.028Z,22.33
2022-10-26T04:53:09.835Z,22.98
2022-10-26T04:58:04.994Z,23.50
2022-10-26T05:00:33.241Z,22.00
2022-10-26T05:03:01.446Z,22.92
2022-10-26T05:05:29.214Z,23.20
2022-10-26T05:07:56.852Z,22.48
2022-10-26T05:10:25.028Z,22.23
2022-10-26T05:12:53.349Z,22.42
2022-10-26T05:15:20.732Z,22.70
2022-10-26T05:17:52.082Z,23.08
2022-10-26T05:20:20.593Z,23.60
2022-10-26T05:22:53.225Z,21.80
2022-10-26T05:25:20.258Z,21.52
2022-10-26T05:27:47.771Z,22.55
2022-10-26T05:30:14.994Z,21.33
2022-10-26T05:32:42.782Z,23.17
2022-10-26T05:35:10.651Z,21.50
2022-10-26T05:37:38.545Z,21.40
2022-10-26T05:40:06.635Z,20.17
2022-10-26T05:42:34.386Z,21.92
2022-10-26T05:45:01.935Z,22.35
2022-10-26T05:47:29.548Z,22.27
2022-10-26T05:49:56.848Z,22.65
2022-10-26T05:52:24.020Z,22.55
2022-10-26T05:54:51.556Z,21.45
2022-10-26T05:57:42.758Z,21.52
2022-10-26T06:00:25.826Z,23.58
2022-10-26T06:03:16.255Z,21.05
2022-10-26T06:06:28.593Z,21.75
2022-10-26T06:08:55.893Z,21.35
2022-10-26T06:11:23.446Z,21.63
2022-10-26T06:13:51.558Z,20.48
2022-10-26T06:17:09.697Z,21.70
2022-10-26T06:19:40.866Z,20.77
2022-10-26T06:22:30.707Z,21.70
2022-10-26T06:25:36.968Z,20.27
2022-10-26T06:31:42.832Z,20.08
2022-10-26T06:34:10.508Z,19.83
2022-10-26T06:36:42.271Z,20.08
2022-10-26T06:39:13.838Z,20.05
2022-10-26T06:41:41.950Z,19.35
2022-10-26T06:44:19.870Z,18.55
2022-10-26T06:47:07.689Z,17.77
2022-10-26T06:49:38.948Z,20.50
2022-10-26T06:56:53.513Z,20.63
2022-10-26T06:59:33.481Z,19.20
2022-10-26T07:02:04.207Z,18.45
2022-10-26T07:04:33.463Z,18.63
2022-10-26T07:07:00.880Z,18.92
2022-10-26T07:09:31.944Z,18.60
2022-10-26T07:12:02.255Z,18.67
2022-10-26T07:14:35.263Z,20.83
2022-10-26T07:17:02.466Z,18.55
2022-10-26T07:19:30.071Z,18.15
2022-10-26T07:22:01.712Z,18.30
2022-10-26T07:24:31.581Z,17.95
2022-10-26T07:27:13.162Z,17.05
2022-10-26T07:29:40.593Z,17.33
2022-10-26T07:32:08.911Z,17.48
2022-10-26T07:34:36.163Z,17.95
2022-10-26T07:37:04.125Z,17.17
2022-10-26T07:39:35.158Z,17.30
2022-10-26T07:42:05.101Z,17.60
2022-10-26T07:44:32.465Z,17.38
2022-10-26T07:47:00.341Z,16.48
2022-10-26T07:50:22.878Z,17.35
2022-10-26T07:54:21.571Z,17.92
2022-10-26T07:58:55.172Z,18.27
2022-10-26T08:02:57.937Z,17.77
2022-10-26T08:06:17.972Z,17.27
2022-10-26T08:08:47.731Z,16.88
2022-10-26T08:11:18.355Z,15.75
2022-10-26T08:13:45.445Z,13.68
2022-10-26T08:16:12.453Z,14.13
2022-10-26T08:18:39.776Z,14.48
2022-10-26T08:21:13.473Z,14.20
2022-10-26T08:23:42.827Z,13.60
2022-10-26T08:26:13.523Z,15.07
2022-10-26T08:28:40.757Z,15.60
2022-10-26T08:31:07.891Z,15.55
2022-10-26T08:33:35.046Z,14.60
2022-10-26T08:36:05.209Z,16.40
2022-10-26T08:38:34.051Z,18.38
2022-10-26T08:41:08.220Z,16.85
2022-10-26T08:43:43.424Z,17.83
2022-10-26T08:46:16.369Z,18.50
2022-10-26T08:48:47.974Z,18.35
2022-10-26T08:51:58.764Z,19.58
2022-10-26T08:54:57.849Z,18.73
2022-10-26T08:57:46.300Z,19.77
2022-10-26T09:00:45.826Z,18.98
2022-10-26T09:03:41.157Z,19.73
2022-10-26T09:06:47.398Z,20.30
2022-10-26T09:09:26.170Z,21.38
2022-10-26T09:12:21.214Z,20.52
2022-10-26T09:15:08.373Z,22.35
2022-10-26T09:20:57.255Z,21.20
2022-10-26T09:24:04.361Z,22.88
2022-10-26T09:27:01.855Z,23.35
2022-10-26T09:38:41.909Z,24.35
2022-10-26T09:44:36.790Z,22.45
2022-10-26T09:47:40.880Z,23.13
2022-10-26T09:54:22.127Z,20.48
2022-10-26T09:57:06.222Z,21.85
2022-10-26T09:59:39.312Z,21.42
2022-10-26T10:02:39.181Z,21.08
2022-10-26T10:08:19.803Z,20.20
2022-10-26T10:11:08.174Z,19.50
2022-10-26T10:13:46.091Z,19.67
2022-10-26T10:16:20.776Z,17.45
2022-10-26T10:19:01.147Z,17.15
2022-10-26T10:21:38.462Z,18.17
2022-10-26T10:24:35.715Z,18.02
2022-10-26T10:27:16.668Z,18.55
2022-10-26T10:29:59.724Z,18.35
2022-10-26T10:32:35.487Z,18.15
2022-10-26T10:35:23.429Z,17.50
2022-10-26T10:37:51.195Z,18.33
2022-10-26T10:40:23.976Z,17.25
2022-10-26T10:42:52.743Z,19.30
2022-10-26T10:45:23.264Z,16.40
2022-10-26T10:48:12.949Z,17.13
2022-10-26T10:50:52.712Z,18.15
2022-10-26T10:53:25.811Z,18.73
2022-10-26T10:56:44.649Z,18.35
2022-10-26T10:59:51.726Z,18.88
2022-10-26T11:02:47.896Z,17.90
2022-10-26T11:05:38.587Z,18.38
2022-10-26T11:08:10.493Z,19.23
2022-10-26T11:10:40.730Z,20.25
2022-10-26T11:13:16.749Z,24.15
2022-10-26T11:15:45.490Z,19.38
2022-10-26T11:18:18.091Z,19.63
2022-10-26T11:21:02.147Z,19.25
2022-10-26T11:23:43.057Z,18.45
2022-10-26T11:26:17.526Z,18.88
2022-10-26T11:29:20.007Z,19.50
2022-10-26T11:31:52.068Z,19.90
2022-10-26T11:34:29.968Z,19.67
2022-10-26T11:37:05.534Z,21.05
2022-10-26T11:40:08.911Z,19.65
2022-10-26T11:42:44.422Z,19.15
2022-10-26T11:45:24.959Z,18.95
2022-10-26T11:48:22.509Z,19.05
2022-10-26T11:51:06.366Z,18.85
2022-10-26T11:53:39.658Z,17.25
2022-10-26T11:56:15.621Z,16.17
2022-10-26T11:58:43.200Z,15.95
2022-10-26T12:01:12.333Z,16.05
2022-10-26T12:03:45.630Z,15.32
2022-10-26T12:06:15.397Z,13.57
2022-10-26T12:08:45.254Z,14.80
2022-10-26T12:11:26.427Z,16.50
2022-10-26T12:14:08.735Z,14.90
2022-10-26T12:17:07.443Z,15.38
2022-10-26T12:19:40.297Z,16.02
2022-10-26T12:22:11.757Z,15.18
2022-10-26T12:24:45.284Z,15.40
2022-10-26T12:27:36.129Z,15.75
2022-10-26T12:30:32.884Z,16.73
2022-10-26T12:33:53.395Z,15.75
2022-10-26T12:37:14.598Z,15.15
2022-10-26T12:39:43.050Z,15.38
2022-10-26T12:42:29.943Z,16.55
2022-10-26T12:44:57.096Z,15.60
2022-10-26T12:47:33.490Z,16.40
2022-10-26T12:50:27.110Z,14.63
2022-10-26T12:52:59.671Z,12.35
2022-10-26T12:55:56.900Z,13.13
2022-10-26T13:01:03.473Z,14.80
2022-10-26T13:04:04.721Z,12.70
2022-10-26T13:06:38.194Z,15.07
2022-10-26T13:09:34.942Z,16.33
2022-10-26T13:12:03.377Z,14.00
2022-10-26T13:14:36.892Z,15.00
2022-10-26T13:17:05.663Z,15.57
2022-10-26T13:19:56.411Z,16.40
2022-10-26T13:22:24.623Z,16.88
2022-10-26T13:24:59.064Z,17.35
2022-10-26T13:27:41.239Z,15.50
2022-10-26T13:30:33.654Z,16.80
2022-10-26T13:33:02.082Z,17.50
2022-10-26T13:35:29.109Z,18.13
2022-10-26T13:37:57.126Z,20.52
2022-10-26T13:40:26.472Z,17.58
2022-10-26T13:43:03.693Z,18.45
2022-10-26T13:45:50.957Z,19.52
2022-10-26T13:48:24.866Z,19.88
2022-10-26T13:50:53.936Z,20.63
2022-10-26T13:54:20.162Z,21.30
2022-10-26T13:57:30.790Z,20.35
2022-10-26T14:00:03.004Z,24.45
2022-10-26T14:02:41.867Z,22.10
2022-10-26T14:05:12.592Z,23.92
2022-10-26T14:07:58.664Z,25.40
2022-10-26T14:10:39.308Z,25.13
2022-10-26T14:13:13.348Z,23.85
2022-10-26T14:15:44.161Z,23.38
2022-10-26T14:18:21.664Z,22.85
2022-10-26T14:21:00.454Z,21.90
2022-10-26T14:24:00.460Z,21.05
2022-10-26T14:26:41.135Z,20.90
2022-10-26T14:29:26.230Z,21.00
2022-10-26T14:31:54.889Z,21.35
2022-10-26T14:34:21.974Z,18.88
2022-10-26T14:36:55.342Z,19.77
2022-10-26T14:42:46.003Z,20.83
2022-10-26T14:45:55.099Z,22.42
2022-10-26T14:48:24.755Z,19.90
2022-10-26T14:51:10.225Z,19.50
2022-10-26T14:53:39.953Z,19.05
2022-10-26T14:56:21.468Z,20.63
2022-10-26T14:58:48.895Z,19.38
2022-10-26T15:01:22.285Z,20.70
2022-10-26T15:04:06.661Z,22.77
2022-10-26T15:06:38.868Z,20.65
2022-10-26T15:09:35.743Z,21.98
2022-10-26T15:12:15.179Z,23.90
2022-10-26T15:14:42.824Z,25.77
2022-10-26T15:17:23.451Z,26.40
2022-10-26T15:19:58.240Z,24.45
2022-10-26T15:22:32.034Z,25.75
2022-10-26T15:25:18.247Z,26.48
2022-10-26T15:27:48.967Z,28.73
2022-10-26T15:30:25.146Z,28.08
2022-10-26T15:33:25.792Z,28.42
2022-10-26T15:36:09.342Z,30.20
2022-10-26T15:40:20.088Z,30.70
2022-10-26T15:49:43.338Z,32.50
2022-10-26T15:56:52.118Z,35.15
2022-10-26T15:59:34.543Z,33.22
2022-10-26T16:02:32.122Z,32.60
2022-10-26T16:05:03.924Z,32.42
2022-10-26T16:07:46.091Z,33.13
2022-10-26T16:13:36.318Z,33.35
2022-10-26T16:16:19.434Z,32.70
2022-10-26T16:19:31.236Z,33.58
2022-10-26T16:22:03.068Z,34.20
2022-10-26T16:24:32.035Z,34.25
2022-10-26T16:26:59.103Z,35.88
2022-10-26T16:29:26.241Z,38.05
2022-10-26T16:31:53.674Z,34.28
2022-10-26T16:34:20.646Z,37.47
2022-10-26T16:36:47.572Z,37.25
2022-10-26T16:39:17.006Z,37.03
2022-10-26T16:41:44.168Z,38.05
2022-10-26T16:44:27.603Z,38.10
2022-10-26T16:47:17.596Z,40.70
2022-10-26T16:52:37.118Z,38.80
2022-10-26T16:55:12.917Z,38.58
2022-10-26T16:57:39.952Z,41.22
2022-10-26T17:00:46.286Z,38.95
2022-10-26T17:03:31.952Z,40.47
2022-10-26T17:06:22.407Z,40.72
2022-10-26T17:09:10.327Z,39.95
2022-10-26T17:11:41.351Z,40.08
2022-10-26T17:14:14.629Z,42.72
2022-10-26T17:17:01.181Z,44.25
2022-10-26T17:26:51.211Z,45.38
2022-10-26T17:42:08.313Z,47.03
2022-10-26T17:43:58.263Z,47.50
2022-10-26T17:46:34.639Z,44.67
2022-10-26T17:49:12.373Z,47.15
2022-10-26T17:51:57.118Z,47.30
2022-10-26T17:54:41.080Z,47.28
2022-10-26T17:57:24.273Z,47.55
2022-10-26T18:00:07.642Z,49.17
2022-10-26T18:02:44.233Z,49.38
2022-10-26T18:05:41.271Z,48.80
2022-10-26T18:08:20.401Z,48.00
2022-10-26T18:11:02.196Z,47.88
2022-10-26T18:13:51.881Z,52.22
2022-10-26T18:16:38.033Z,50.17
2022-10-26T18:19:33.298Z,52.33
2022-10-26T18:24:55.251Z,49.08
2022-10-26T18:27:49.100Z,53.35
2022-10-26T18:30:31.168Z,55.13
2022-10-26T18:33:03.643Z,53.08
2022-10-26T18:35:37.716Z,51.75
2022-10-26T18:38:19.076Z,49.83
2022-10-26T18:41:13.070Z,48.75
2022-10-26T18:44:10.253Z,49.97
2022-10-26T18:47:36.047Z,49.53
2022-10-26T18:51:47.058Z,49.63
2022-10-26T19:00:37.527Z,51.17
2022-10-26T19:05:43.145Z,53.33
2022-10-26T19:35:25.089Z,52.13
2022-10-26T19:37:57.745Z,51.65
2022-10-26T19:41:54.807Z,52.97
2022-10-26T19:44:40.325Z,52.95
2022-10-26T19:47:07.931Z,53.15
2022-10-26T19:49:42.344Z,51.72
2022-10-26T19:52:11.770Z,50.35
2022-10-26T19:54:38.946Z,51.60
2022-10-26T19:57:09.582Z,50.67
2022-10-26T19:59:50.220Z,52.28
2022-10-26T20:02:25.073Z,53.38
2022-10-26T20:04:53.088Z,52.85
2022-10-26T20:07:23.020Z,52.47
2022-10-26T20:09:58.689Z,53.25
2022-10-26T20:12:28.487Z,53.63
2022-10-26T20:14:55.501Z,51.67
2022-10-26T20:17:28.490Z,51.35
2022-10-26T20:19:58.592Z,51.60
2022-10-26T20:22:54.579Z,52.97
2022-10-26T20:25:49.066Z,51.78
2022-10-26T20:28:18.034Z,48.83
2022-10-26T20:31:36.926Z,50.97
2022-10-26T20:34:04.737Z,53.40
2022-10-26T20:36:38.775Z,52.45
2022-10-26T20:39:09.063Z,50.40
2022-10-26T20:41:47.469Z,50.60
2022-10-26T20:44:22.790Z,52.35
2022-10-26T20:47:06.850Z,54.63
2022-10-26T20:49:34.994Z,53.70
2022-10-26T20:52:22.148Z,52.78
2022-10-26T20:55:40.015Z,55.13
2022-10-26T20:58:39.578Z,54.72
2022-10-26T21:01:26.698Z,53.33
2022-10-26T21:03:55.252Z,53.80
2022-10-26T21:06:30.273Z,53.88
2022-10-26T21:09:00.546Z,55.85
2022-10-26T21:11:36.059Z,53.00
2022-10-26T21:14:05.177Z,56.20
2022-10-26T21:16:38.184Z,55.17
2022-10-26T21:19:08.434Z,54.67
2022-10-26T21:22:07.166Z,53.60
2022-10-26T21:24:45.497Z,54.55
2022-10-26T21:27:15.565Z,57.22
2022-10-26T21:29:46.476Z,55.70
2022-10-26T21:32:14.234Z,57.50
2022-10-26T21:34:43.945Z,55.92
2022-10-26T21:37:19.249Z,57.72
2022-10-26T21:39:46.504Z,57.00
2022-10-26T21:42:19.201Z,56.90
2022-10-26T21:44:50.063Z,56.38
2022-10-26T21:47:27.905Z,58.67
2022-10-26T21:49:55.150Z,59.65
2022-10-26T21:52:25.156Z,58.03
2022-10-26T21:54:58.296Z,57.17
2022-10-26T21:57:34.188Z,56.53
2022-10-26T22:00:06.550Z,51.67
2022-10-26T22:02:45.919Z,52.05
2022-10-26T22:05:23.745Z,53.92
2022-10-26T22:07:51.264Z,57.35
2022-10-26T22:10:58.013Z,57.10
2022-10-26T22:13:34.404Z,51.92
2022-10-26T22:16:23.205Z,50.67
2022-10-26T22:19:27.288Z,49.15
2022-10-26T22:22:02.105Z,50.00
2022-10-26T22:24:30.077Z,49.97
2022-10-26T22:26:57.396Z,45.70
2022-10-26T22:29:30.142Z,44.23
2022-10-26T22:32:04.808Z,45.73
2022-10-26T22:34:38.110Z,48.70
2022-10-26T22:37:05.359Z,50.10
2022-10-26T22:39:35.266Z,48.92
2022-10-26T22:43:42.393Z,46.33
2022-10-26T22:46:24.369Z,37.20
2022-10-26T22:48:57.122Z,42.85
2022-10-26T22:51:29.440Z,45.58
2022-10-26T22:54:06.343Z,45.67
2022-10-26T22:56:36.555Z,43.63
2022-10-26T22:59:05.612Z,45.20
2022-10-26T23:01:51.485Z,47.33
2022-10-26T23:04:24.011Z,46.55
2022-10-26T23:06:51.033Z,49.92
2022-10-26T23:09:18.298Z,46.45
2022-10-26T23:11:45.815Z,48.67
2022-10-26T23:14:13.428Z,51.28
2022-10-26T23:16:40.757Z,44.15
2022-10-26T23:19:08.697Z,58.88
2022-10-26T23:21:38.511Z,56.25
2022-10-26T23:24:07.348Z,51.88
2022-10-26T23:26:39.023Z,57.88
2022-10-26T23:29:08.512Z,53.00
2022-10-26T23:31:39.239Z,61.72
2022-10-26T23:34:14.304Z,57.85
2022-10-26T23:36:47.977Z,56.22
2022-10-26T23:39:15.145Z,52.30
2022-10-26T23:42:13.041Z,53.30
2022-10-26T23:45:04.482Z,64.32
2022-10-26T23:47:31.681Z,48.95
2022-10-26T23:49:59.333Z,54.30
2022-10-26T23:52:26.532Z,53.28
2022-10-26T23:54:53.826Z,55.80
2022-10-26T23:57:20.884Z,54.25
2022-10-26T23:59:47.927Z,53.13
